createdAt,value
2023-04-21T00:01:34.759Z,100139.88
2023-04-21T00:04:03.283Z,100143.34
2023-04-21T00:06:31.395Z,100132.66
2023-04-21T00:08:59.239Z,100124.97
2023-04-21T00:11:27.014Z,100143.69
2023-04-21T00:13:56.219Z,100139.53
2023-04-21T00:16:24.102Z,100135.22
2023-04-21T00:18:51.837Z,100123.03
2023-04-21T00:21:19.597Z,100125.59
2023-04-21T00:23:47.498Z,100115.16
2023-04-21T00:26:15.477Z,100124.75
2023-04-21T00:28:44.845Z,100115.13
2023-04-21T00:31:12.642Z,100127.25
2023-04-21T00:33:40.555Z,100115.88
2023-04-21T00:36:08.431Z,100120.91
2023-04-21T00:38:36.438Z,100131.34
2023-04-21T00:41:04.421Z,100110.06
2023-04-21T00:43:32.191Z,100117.88
2023-04-21T00:45:59.966Z,100106.31
2023-04-21T00:48:27.662Z,100108.06
2023-04-21T00:50:55.486Z,100087.06
2023-04-21T00:53:23.407Z,100104.56
2023-04-21T00:55:51.942Z,100107.16
2023-04-21T00:58:19.758Z,100109.88
2023-04-21T01:00:47.680Z,100111.59
2023-04-21T01:03:16.538Z,100102.78
2023-04-21T01:05:44.550Z,100104.69
2023-04-21T01:08:13.931Z,100094.38
2023-04-21T01:10:42.364Z,100077.72
2023-04-21T01:13:10.083Z,100092.59
2023-04-21T01:15:37.892Z,100085.63
2023-04-21T01:18:06.314Z,100079.53
2023-04-21T01:20:34.574Z,100088.50
2023-04-21T01:23:02.400Z,100084.47
2023-04-21T01:25:30.271Z,100083.16
2023-04-21T01:27:58.043Z,100091.50
2023-04-21T01:30:25.841Z,100089.00
2023-04-21T01:32:53.609Z,100086.34
2023-04-21T01:35:21.442Z,100087.91
2023-04-21T01:37:49.237Z,100090.47
2023-04-21T01:40:17.046Z,100084.25
2023-04-21T01:42:45.441Z,100099.97
2023-04-21T01:45:14.055Z,100092.81
2023-04-21T01:47:41.804Z,100084.88
2023-04-21T01:50:10.140Z,100090.00
2023-04-21T01:52:37.958Z,100096.06
2023-04-21T01:55:06.350Z,100080.31
2023-04-21T01:57:35.008Z,100099.44
2023-04-21T02:00:04.756Z,100092.41
2023-04-21T02:02:43.042Z,100092.38
2023-04-21T02:05:13.518Z,100106.47
2023-04-21T02:07:42.421Z,100105.53
2023-04-21T02:10:11.424Z,100106.41
2023-04-21T02:12:39.169Z,100104.63
2023-04-21T02:15:07.947Z,100100.22
2023-04-21T02:17:36.511Z,100112.63
2023-04-21T02:20:04.735Z,100106.47
2023-04-21T02:22:32.546Z,100097.72
2023-04-21T02:25:00.311Z,100108.38
2023-04-21T02:27:28.284Z,100103.03
2023-04-21T02:29:56.067Z,100098.66
2023-04-21T02:32:25.969Z,100116.22
2023-04-21T02:34:54.217Z,100115.41
2023-04-21T02:37:22.286Z,100110.97
2023-04-21T02:39:50.102Z,100120.72
2023-04-21T02:42:17.917Z,100125.16
2023-04-21T02:44:45.968Z,100111.31
2023-04-21T02:47:16.771Z,100116.41
2023-04-21T02:49:44.638Z,100120.06
2023-04-21T02:52:13.425Z,100123.63
2023-04-21T02:54:41.106Z,100109.66
2023-04-21T02:57:09.925Z,100114.91
2023-04-21T02:59:37.631Z,100117.56
2023-04-21T03:02:05.412Z,100120.31
2023-04-21T03:04:34.184Z,100117.66
2023-04-21T03:07:02.052Z,100112.38
2023-04-21T03:09:29.826Z,100105.53
2023-04-21T03:11:57.524Z,100098.53
2023-04-21T03:14:25.415Z,100107.38
2023-04-21T03:16:53.124Z,100092.47
2023-04-21T03:19:21.162Z,100090.69
2023-04-21T03:21:49.148Z,100073.16
2023-04-21T03:24:17.245Z,100075.00
2023-04-21T03:26:45.122Z,100096.03
2023-04-21T03:29:12.908Z,100082.94
2023-04-21T03:31:40.845Z,100082.16
2023-04-21T03:34:08.540Z,100090.91
2023-04-21T03:36:36.388Z,100089.13
2023-04-21T03:39:20.576Z,100086.59
2023-04-21T03:41:50.237Z,100087.59
2023-04-21T03:44:17.966Z,100077.94
2023-04-21T03:46:46.914Z,100078.81
2023-04-21T03:49:14.660Z,100081.44
2023-04-21T03:51:42.442Z,100079.69
2023-04-21T03:54:10.235Z,100070.97
2023-04-21T03:56:37.983Z,100072.66
2023-04-21T03:59:06.160Z,100070.84
2023-04-21T04:01:36.880Z,100067.25
2023-04-21T04:04:04.915Z,100071.84
2023-04-21T04:06:33.197Z,100077.94
2023-04-21T04:09:04.337Z,100073.56
2023-04-21T04:11:32.946Z,100073.69
2023-04-21T04:14:00.839Z,100070.31
2023-04-21T04:16:29.265Z,100069.44
2023-04-21T04:18:57.216Z,100073.81
2023-04-21T04:21:25.162Z,100068.59
2023-04-21T04:23:53.245Z,100053.56
2023-04-21T04:26:24.771Z,100057.06
2023-04-21T04:28:53.441Z,100079.19
2023-04-21T04:31:21.461Z,100083.56
2023-04-21T04:33:49.487Z,100068.66
2023-04-21T04:36:17.301Z,100083.63
2023-04-21T04:38:48.421Z,100065.22
2023-04-21T04:41:16.783Z,100066.94
2023-04-21T04:43:45.169Z,100068.78
2023-04-21T04:46:13.126Z,100077.53
2023-04-21T04:48:41.352Z,100069.66
2023-04-21T04:51:09.078Z,100079.31
2023-04-21T04:53:37.451Z,100080.25
2023-04-21T04:56:05.962Z,100079.44
2023-04-21T04:58:33.912Z,100088.19
2023-04-21T05:01:13.033Z,100091.56
2023-04-21T05:03:43.187Z,100088.06
2023-04-21T05:06:11.317Z,100085.34
2023-04-21T05:08:40.168Z,100092.28
2023-04-21T05:11:09.005Z,100098.31
2023-04-21T05:13:39.548Z,100092.97
2023-04-21T05:16:10.080Z,100093.78
2023-04-21T05:18:38.273Z,100092.81
2023-04-21T05:21:06.962Z,100112.97
2023-04-21T05:23:35.675Z,100109.38
2023-04-21T05:26:05.776Z,100117.19
2023-04-21T05:28:33.595Z,100123.41
2023-04-21T05:31:01.435Z,100118.13
2023-04-21T05:33:31.751Z,100113.63
2023-04-21T05:35:59.611Z,100124.91
2023-04-21T05:38:27.599Z,100123.03
2023-04-21T05:40:56.136Z,100132.66
2023-04-21T05:43:23.938Z,100137.63
2023-04-21T05:45:51.755Z,100126.06
2023-04-21T05:48:22.463Z,100135.66
2023-04-21T05:50:50.181Z,100141.69
2023-04-21T05:53:18.077Z,100136.34
2023-04-21T05:55:46.299Z,100147.69
2023-04-21T05:58:14.137Z,100139.75
2023-04-21T06:00:41.849Z,100135.38
2023-04-21T06:03:11.644Z,100144.16
2023-04-21T06:05:39.525Z,100143.25
2023-04-21T06:08:07.499Z,100141.38
2023-04-21T06:10:35.254Z,100145.63
2023-04-21T06:13:03.138Z,100145.47
2023-04-21T06:15:30.895Z,100153.22
2023-04-21T06:18:00.588Z,100146.00
2023-04-21T06:20:28.547Z,100144.94
2023-04-21T06:22:57.559Z,100161.56
2023-04-21T06:25:26.556Z,100153.47
2023-04-21T06:27:54.325Z,100145.50
2023-04-21T06:30:27.956Z,100128.78
2023-04-21T06:32:55.887Z,100145.22
2023-04-21T06:35:23.614Z,100138.03
2023-04-21T06:37:52.099Z,100142.28
2023-04-21T06:40:21.619Z,100138.63
2023-04-21T06:42:51.022Z,100135.09
2023-04-21T06:45:20.318Z,100127.13
2023-04-21T06:47:49.766Z,100134.91
2023-04-21T06:50:17.705Z,100138.38
2023-04-21T06:52:45.448Z,100138.28
2023-04-21T06:55:14.620Z,100126.59
2023-04-21T06:57:45.168Z,100123.66
2023-04-21T07:00:14.512Z,100110.91
2023-04-21T07:02:42.447Z,100114.88
2023-04-21T07:05:10.715Z,100120.50
2023-04-21T07:07:38.411Z,100128.84
2023-04-21T07:10:07.141Z,100119.59
2023-04-21T07:12:36.774Z,100118.31
2023-04-21T07:15:12.212Z,100128.28
2023-04-21T07:17:43.469Z,100126.06
2023-04-21T07:20:11.661Z,100119.47
2023-04-21T07:22:39.385Z,100119.94
2023-04-21T07:25:09.361Z,100119.53
2023-04-21T07:27:37.383Z,100120.03
2023-04-21T07:30:07.938Z,100110.94
2023-04-21T07:32:38.785Z,100114.97
2023-04-21T07:35:12.977Z,100105.81
2023-04-21T07:37:41.192Z,100101.00
2023-04-21T07:40:10.226Z,100105.00
2023-04-21T07:42:40.511Z,100100.16
2023-04-21T07:45:08.963Z,100098.63
2023-04-21T07:47:36.862Z,100101.66
2023-04-21T07:50:07.582Z,100102.13
2023-04-21T07:52:35.529Z,100103.56
2023-04-21T07:55:06.302Z,100106.91
2023-04-21T07:57:38.633Z,100098.72
2023-04-21T08:00:07.772Z,100104.63
2023-04-21T08:02:39.998Z,100096.41
2023-04-21T08:05:10.145Z,100104.16
2023-04-21T08:07:38.285Z,100096.75
2023-04-21T08:10:08.810Z,100101.59
2023-04-21T08:12:38.995Z,100092.31
2023-04-21T08:15:08.427Z,100083.84
2023-04-21T08:17:36.293Z,100087.59
2023-04-21T08:20:05.655Z,100089.53
2023-04-21T08:22:40.933Z,100098.78
2023-04-21T08:25:10.968Z,100100.91
2023-04-21T08:27:40.012Z,100091.81
2023-04-21T08:30:09.179Z,100090.88
2023-04-21T08:32:38.646Z,100094.41
2023-04-21T08:35:07.396Z,100085.13
2023-04-21T08:37:38.019Z,100067.25
2023-04-21T08:40:07.319Z,100077.41
2023-04-21T08:42:37.044Z,100064.53
2023-04-21T08:45:06.942Z,100062.91
2023-04-21T08:47:36.642Z,100051.94
2023-04-21T08:50:04.964Z,100057.72
2023-04-21T08:52:33.617Z,100056.38
2023-04-21T08:55:03.706Z,100048.22
2023-04-21T08:57:36.918Z,100046.16
2023-04-21T09:00:07.941Z,100039.53
2023-04-21T09:03:02.256Z,100044.31
2023-04-21T09:05:33.962Z,100052.00
2023-04-21T09:08:18.489Z,100032.97
2023-04-21T09:10:52.470Z,100039.63
2023-04-21T09:13:24.449Z,100032.28
2023-04-21T09:15:52.735Z,100031.09
2023-04-21T09:18:23.713Z,100023.25
2023-04-21T09:21:10.577Z,100028.00
2023-04-21T09:23:52.789Z,100024.09
2023-04-21T09:26:25.226Z,100022.22
2023-04-21T09:28:54.889Z,100018.38
2023-04-21T09:31:30.193Z,100016.03
2023-04-21T09:34:00.762Z,100017.31
2023-04-21T09:36:31.991Z,100022.16
2023-04-21T09:41:34.183Z,100009.97
2023-04-21T09:44:04.069Z,100012.16
2023-04-21T09:46:37.602Z,100012.50
2023-04-21T09:49:06.624Z,100009.38
2023-04-21T09:54:29.271Z,100012.06
2023-04-21T09:57:03.970Z,100003.38
2023-04-21T09:59:37.411Z,100009.63
2023-04-21T10:02:07.733Z,100007.34
2023-04-21T10:04:39.194Z,99993.69
2023-04-21T10:07:12.494Z,99998.72
2023-04-21T10:09:58.141Z,99998.84
2023-04-21T10:12:27.756Z,100004.50
2023-04-21T10:14:56.942Z,99988.03
2023-04-21T10:17:27.749Z,99992.66
2023-04-21T10:19:57.774Z,99986.31
2023-04-21T10:22:30.557Z,99986.59
2023-04-21T10:25:01.291Z,100003.94
2023-04-21T10:27:43.263Z,99993.78
2023-04-21T10:30:28.855Z,99981.97
2023-04-21T10:33:05.345Z,99960.22
2023-04-21T10:35:58.834Z,99976.81
2023-04-21T10:38:44.151Z,99969.41
2023-04-21T10:41:33.958Z,99963.75
2023-04-21T10:44:22.441Z,99961.63
2023-04-21T10:46:52.984Z,99961.25
2023-04-21T10:49:30.208Z,99953.81
2023-04-21T10:52:06.281Z,99950.13
2023-04-21T10:54:46.389Z,99959.47
2023-04-21T10:57:20.020Z,99952.84
2023-04-21T10:59:51.858Z,99948.13
2023-04-21T11:02:19.848Z,99947.94
2023-04-21T11:04:54.709Z,99944.66
2023-04-21T11:07:26.843Z,99930.03
2023-04-21T11:10:15.645Z,99919.81
2023-04-21T11:12:43.403Z,99919.75
2023-04-21T11:15:20.944Z,99920.38
2023-04-21T11:17:51.491Z,99925.00
2023-04-21T11:20:19.261Z,99915.00
2023-04-21T11:22:55.776Z,99906.53
2023-04-21T11:25:25.991Z,99902.47
2023-04-21T11:27:59.927Z,99909.53
2023-04-21T11:30:35.424Z,99903.44
2023-04-21T11:33:05.406Z,99905.06
2023-04-21T11:35:33.276Z,99896.88
2023-04-21T11:38:05.894Z,99899.91
2023-04-21T11:40:51.151Z,99892.81
2023-04-21T11:43:23.367Z,99899.78
2023-04-21T11:45:51.530Z,99896.78
2023-04-21T11:48:22.488Z,99896.44
2023-04-21T11:50:50.849Z,99906.91
2023-04-21T11:53:20.883Z,99906.59
2023-04-21T11:55:48.629Z,99900.03
2023-04-21T11:58:17.750Z,99904.22
2023-04-21T12:00:47.159Z,99899.47
2023-04-21T12:03:19.663Z,99902.59
2023-04-21T12:05:56.976Z,99890.75
2023-04-21T12:08:24.887Z,99904.31
2023-04-21T12:10:52.733Z,99893.97
2023-04-21T12:13:30.713Z,99899.78
2023-04-21T12:16:04.203Z,99886.09
2023-04-21T12:18:36.764Z,99883.63
2023-04-21T12:21:04.872Z,99871.69
2023-04-21T12:23:33.913Z,99882.19
2023-04-21T12:26:01.909Z,99875.75
2023-04-21T12:28:30.258Z,99877.00
2023-04-21T12:30:58.113Z,99866.72
2023-04-21T12:33:25.974Z,99870.56
2023-04-21T12:35:55.140Z,99875.47
2023-04-21T12:38:22.920Z,99867.16
2023-04-21T12:40:50.749Z,99864.03
2023-04-21T12:43:18.495Z,99866.47
2023-04-21T12:45:48.111Z,99871.00
2023-04-21T12:48:16.021Z,99866.06
2023-04-21T12:50:43.935Z,99868.75
2023-04-21T12:53:11.646Z,99871.22
2023-04-21T12:55:40.180Z,99871.00
2023-04-21T12:58:12.601Z,99872.59
2023-04-21T13:00:41.433Z,99876.78
2023-04-21T13:03:10.960Z,99867.50
2023-04-21T13:05:45.957Z,99863.59
2023-04-21T13:08:14.505Z,99857.88
2023-04-21T13:10:42.222Z,99849.66
2023-04-21T13:13:10.045Z,99848.13
2023-04-21T13:15:41.444Z,99846.91
2023-04-21T13:18:09.536Z,99850.19
2023-04-21T13:20:37.272Z,99847.41
2023-04-21T13:23:05.094Z,99858.91
2023-04-21T13:25:33.048Z,99850.72
2023-04-21T13:28:01.189Z,99844.25
2023-04-21T13:30:29.096Z,99844.00
2023-04-21T13:32:58.618Z,99837.75
2023-04-21T13:35:26.450Z,99831.50
2023-04-21T13:37:54.371Z,99842.56
2023-04-21T13:40:22.081Z,99838.88
2023-04-21T13:42:49.922Z,99833.13
2023-04-21T13:45:17.658Z,99839.28
2023-04-21T13:47:45.439Z,99824.69
2023-04-21T13:50:13.160Z,99827.75
2023-04-21T13:52:40.933Z,99823.84
2023-04-21T13:55:09.172Z,99805.72
2023-04-21T13:57:38.156Z,99800.00
2023-04-21T14:00:08.094Z,99798.03
2023-04-21T14:02:39.050Z,99790.44
2023-04-21T14:05:09.565Z,99774.03
2023-04-21T14:07:39.635Z,99761.13
2023-04-21T14:10:08.133Z,99759.06
2023-04-21T14:12:36.054Z,99745.44
2023-04-21T14:15:06.000Z,99752.19
2023-04-21T14:17:35.792Z,99752.91
2023-04-21T14:20:04.279Z,99745.44
2023-04-21T14:22:31.955Z,99750.56
2023-04-21T14:25:02.500Z,99747.16
2023-04-21T14:27:34.239Z,99749.47
2023-04-21T14:30:02.909Z,99739.31
2023-04-21T14:32:30.814Z,99738.78
2023-04-21T14:35:00.587Z,99737.44
2023-04-21T14:37:28.340Z,99712.44
2023-04-21T14:39:56.014Z,99715.47
2023-04-21T14:42:23.868Z,99717.03
2023-04-21T14:44:52.378Z,99708.69
2023-04-21T14:47:21.929Z,99703.78
2023-04-21T14:49:54.683Z,99701.22
2023-04-21T14:52:27.159Z,99704.00
2023-04-21T14:54:56.959Z,99697.84
2023-04-21T14:57:24.820Z,99713.44
2023-04-21T14:59:53.565Z,99722.41
2023-04-21T15:02:22.533Z,99717.59
2023-04-21T15:04:50.771Z,99722.63
2023-04-21T15:07:24.475Z,99719.78
2023-04-21T15:09:55.657Z,99719.78
2023-04-21T15:12:23.495Z,99720.50
2023-04-21T15:14:51.604Z,99721.22
2023-04-21T15:17:19.324Z,99714.13
2023-04-21T15:19:48.501Z,99708.25
2023-04-21T15:22:16.391Z,99713.66
2023-04-21T15:24:44.169Z,99721.16
2023-04-21T15:27:11.911Z,99709.75
2023-04-21T15:29:39.762Z,99707.91
2023-04-21T15:32:07.587Z,99713.78
2023-04-21T15:34:35.626Z,99709.13
2023-04-21T15:37:03.339Z,99713.38
2023-04-21T15:39:31.062Z,99705.28
2023-04-21T15:41:59.377Z,99710.16
2023-04-21T15:44:27.290Z,99716.41
2023-04-21T15:46:55.127Z,99721.56
2023-04-21T15:49:25.726Z,99754.94
2023-04-21T15:51:53.866Z,99781.19
2023-04-21T15:54:21.672Z,99770.81
2023-04-21T15:56:49.735Z,99785.94
2023-04-21T15:59:17.426Z,99775.25
2023-04-21T16:01:45.302Z,99772.59
2023-04-21T16:04:13.437Z,99776.41
2023-04-21T16:06:41.571Z,99766.38
2023-04-21T16:09:10.831Z,99765.41
2023-04-21T16:11:38.639Z,99762.97
2023-04-21T16:14:08.246Z,99736.41
2023-04-21T16:16:37.349Z,99694.09
2023-04-21T16:19:05.299Z,99656.38
2023-04-21T16:21:33.011Z,99663.03
2023-04-21T16:24:00.868Z,99688.72
2023-04-21T16:26:28.976Z,99701.06
2023-04-21T16:28:57.875Z,99706.59
2023-04-21T16:31:25.919Z,99711.84
2023-04-21T16:34:00.300Z,99707.88
2023-04-21T16:36:28.858Z,99698.34
2023-04-21T16:38:56.729Z,99698.69
2023-04-21T16:41:25.504Z,99692.69
2023-04-21T16:43:53.555Z,99694.88
2023-04-21T16:46:21.971Z,99702.22
2023-04-21T16:48:49.869Z,99694.69
2023-04-21T16:51:17.936Z,99703.16
2023-04-21T16:53:45.765Z,99704.00
2023-04-21T16:56:14.756Z,99702.31
2023-04-21T16:58:42.506Z,99709.38
2023-04-21T17:01:10.297Z,99702.31
2023-04-21T17:03:39.091Z,99705.47
2023-04-21T17:06:10.737Z,99696.50
2023-04-21T17:08:39.256Z,99707.25
2023-04-21T17:11:07.254Z,99698.25
2023-04-21T17:13:38.044Z,99706.03
2023-04-21T17:16:09.631Z,99709.25
2023-04-21T17:18:39.438Z,99714.97
2023-04-21T17:21:07.226Z,99717.78
2023-04-21T17:23:35.454Z,99729.25
2023-04-21T17:26:05.151Z,99728.53
2023-04-21T17:28:33.496Z,99724.22
2023-04-21T17:31:14.578Z,99719.81
2023-04-21T17:33:44.688Z,99725.41
2023-04-21T17:36:12.661Z,99717.13
2023-04-21T17:38:42.550Z,99720.47
2023-04-21T17:41:10.554Z,99713.97
2023-04-21T17:43:38.258Z,99708.53
2023-04-21T17:46:07.419Z,99718.38
2023-04-21T17:48:35.249Z,99717.44
2023-04-21T17:51:03.957Z,99714.09
2023-04-21T17:53:32.022Z,99726.56
2023-04-21T17:56:00.059Z,99722.38
2023-04-21T17:58:29.856Z,99735.28
2023-04-21T18:00:57.640Z,99752.72
2023-04-21T18:03:27.458Z,99743.16
2023-04-21T18:05:56.022Z,99740.25
2023-04-21T18:08:23.930Z,99715.22
2023-04-21T18:10:51.750Z,99726.16
2023-04-21T18:13:19.476Z,99731.22
2023-04-21T18:15:47.234Z,99732.41
2023-04-21T18:18:15.454Z,99726.56
2023-04-21T18:20:43.358Z,99715.91
2023-04-21T18:23:11.367Z,99733.31
2023-04-21T18:25:42.728Z,99735.69
2023-04-21T18:28:14.369Z,99740.59
2023-04-21T18:30:42.506Z,99738.88
2023-04-21T18:33:11.524Z,99738.88
2023-04-21T18:35:41.514Z,99746.19
2023-04-21T18:38:11.611Z,99755.03
2023-04-21T18:40:40.769Z,99763.44
2023-04-21T18:43:09.914Z,99766.69
2023-04-21T18:45:38.683Z,99779.34
2023-04-21T18:48:06.450Z,99776.91
2023-04-21T18:50:39.313Z,99782.59
2023-04-21T18:53:08.550Z,99781.31
2023-04-21T18:55:37.348Z,99773.03
2023-04-21T18:58:05.159Z,99770.81
2023-04-21T19:00:37.172Z,99778.22
2023-04-21T19:03:06.253Z,99776.09
2023-04-21T19:05:36.073Z,99782.00
2023-04-21T19:08:07.404Z,99786.63
2023-04-21T19:10:35.680Z,99773.59
2023-04-21T19:13:04.232Z,99775.44
2023-04-21T19:15:32.153Z,99777.69
2023-04-21T19:17:59.976Z,99787.47
2023-04-21T19:20:28.991Z,99789.31
2023-04-21T19:22:56.827Z,99790.38
2023-04-21T19:25:26.072Z,99791.44
2023-04-21T19:27:54.075Z,99795.00
2023-04-21T19:30:21.936Z,99791.56
2023-04-21T19:32:49.698Z,99797.88
2023-04-21T19:35:17.578Z,99788.34
2023-04-21T19:37:47.932Z,99790.50
2023-04-21T19:40:16.002Z,99787.69
2023-04-21T19:42:43.679Z,99781.00
2023-04-21T19:45:12.693Z,99800.47
2023-04-21T19:47:40.486Z,99791.88
2023-04-21T19:50:09.235Z,99802.47
2023-04-21T19:52:37.108Z,99792.06
2023-04-21T19:55:06.396Z,99797.03
2023-04-21T19:57:35.862Z,99797.97
2023-04-21T20:00:06.167Z,99792.41
2023-04-21T20:02:40.109Z,99786.19
2023-04-21T20:05:10.870Z,99781.88
2023-04-21T20:07:39.614Z,99778.31
2023-04-21T20:10:08.633Z,99787.88
2023-04-21T20:12:36.462Z,99779.94
2023-04-21T20:15:05.589Z,99777.16
2023-04-21T20:17:35.341Z,99773.59
2023-04-21T20:20:05.275Z,99774.59
2023-04-21T20:22:33.035Z,99777.16
2023-04-21T20:25:00.834Z,99776.19
2023-04-21T20:27:28.489Z,99772.88
2023-04-21T20:29:56.962Z,99774.03
2023-04-21T20:32:25.040Z,99793.38
2023-04-21T20:34:53.703Z,99783.81
2023-04-21T20:37:23.004Z,99784.00
2023-04-21T20:39:50.935Z,99794.75
2023-04-21T20:42:19.317Z,99796.56
2023-04-21T20:44:48.135Z,99786.81
2023-04-21T20:47:17.743Z,99781.56
2023-04-21T20:49:47.336Z,99787.91
2023-04-21T20:52:15.941Z,99788.19
2023-04-21T20:54:43.702Z,99792.69
2023-04-21T20:57:12.106Z,99797.41
2023-04-21T20:59:40.714Z,99795.88
2023-04-21T21:02:09.090Z,99789.53
2023-04-21T21:04:36.910Z,99783.63
2023-04-21T21:07:04.740Z,99776.53
2023-04-21T21:09:32.411Z,99792.66
2023-04-21T21:12:02.318Z,99784.78
2023-04-21T21:14:30.128Z,99795.34
2023-04-21T21:16:58.211Z,99795.34
2023-04-21T21:19:26.277Z,99801.31
2023-04-21T21:21:54.201Z,99817.22
2023-04-21T21:24:21.952Z,99814.06
2023-04-21T21:26:50.758Z,99814.06
2023-04-21T21:29:20.460Z,99816.88
2023-04-21T21:31:48.206Z,99815.91
2023-04-21T21:34:16.017Z,99809.97
2023-04-21T21:36:43.833Z,99817.84
2023-04-21T21:39:11.607Z,99826.75
2023-04-21T21:41:39.717Z,99819.66
2023-04-21T21:44:08.332Z,99820.41
2023-04-21T21:46:36.396Z,99814.97
2023-04-21T21:49:04.750Z,99819.44
2023-04-21T21:51:32.669Z,99815.81
2023-04-21T21:54:00.511Z,99801.44
2023-04-21T21:56:28.396Z,99805.09
2023-04-21T21:58:56.182Z,99803.16
2023-04-21T22:01:23.965Z,99809.59
2023-04-21T22:03:53.038Z,99811.00
2023-04-21T22:06:26.511Z,99809.81
2023-04-21T22:08:54.708Z,99798.22
2023-04-21T22:11:22.871Z,99803.56
2023-04-21T22:13:51.386Z,99799.00
2023-04-21T22:16:19.181Z,99795.34
2023-04-21T22:18:48.298Z,99782.22
2023-04-21T22:21:16.166Z,99782.34
2023-04-21T22:23:43.861Z,99792.22
2023-04-21T22:26:11.688Z,99794.59
2023-04-21T22:28:41.629Z,99791.03
2023-04-21T22:31:10.464Z,99808.88
2023-04-21T22:33:38.312Z,99796.59
2023-04-21T22:36:08.535Z,99801.97
2023-04-21T22:38:38.502Z,99800.56
2023-04-21T22:41:07.182Z,99804.41
2023-04-21T22:43:35.052Z,99808.06
2023-04-21T22:46:03.117Z,99785.94
2023-04-21T22:48:32.624Z,99781.75
2023-04-21T22:51:01.435Z,99784.31
2023-04-21T22:53:29.444Z,99779.06
2023-04-21T22:55:57.328Z,99776.50
2023-04-21T22:58:26.187Z,99781.00
2023-04-21T23:00:54.133Z,99787.41
2023-04-21T23:03:23.169Z,99786.66
2023-04-21T23:05:51.072Z,99786.13
2023-04-21T23:08:18.820Z,99778.38
2023-04-21T23:10:47.428Z,99791.56
2023-04-21T23:13:15.164Z,99795.03
2023-04-21T23:15:42.911Z,99788.25
2023-04-21T23:18:10.713Z,99781.91
2023-04-21T23:20:38.583Z,99787.47
2023-04-21T23:23:06.544Z,99778.97
2023-04-21T23:25:34.325Z,99774.34
2023-04-21T23:28:02.088Z,99773.72
2023-04-21T23:30:29.997Z,99769.59
2023-04-21T23:32:58.056Z,99754.88
2023-04-21T23:35:26.159Z,99763.91
2023-04-21T23:37:56.044Z,99758.94
2023-04-21T23:40:23.994Z,99753.88
2023-04-21T23:42:51.733Z,99767.75
2023-04-21T23:45:19.826Z,99767.00
2023-04-21T23:47:47.561Z,99761.72
2023-04-21T23:50:15.367Z,99759.13
2023-04-21T23:52:44.143Z,99753.88
2023-04-21T23:55:12.932Z,99756.56
2023-04-21T23:57:40.685Z,99747.75
